Time;durP1;ratioP1;P1;durP2;ratioP2;P2;SDS_P1;SDS_P2;PMS_P1;PMS_P2;Temp;Humidity;BMP_temperature;BMP_pressure;BME280_temperature;BME280_humidity;BME280_pressure;Samples;Min_cycle;Max_cycle;Signal;HPM_P1;HPM_P2
2021/12/15 00:00:21;;;;;;;40.45;17.60;;;1.10;99.90;;;;;;5016630;28;20434;-70
2021/12/15 00:02:51;;;;;;;24.90;15.60;;;1.20;99.90;;;;;;5017134;28;20644;-70
2021/12/15 00:05:22;;;;;;;67.88;18.00;;;1.10;99.90;;;;;;5017190;28;20103;-70
2021/12/15 00:07:51;;;;;;;19.42;13.40;;;1.10;99.90;;;;;;5017411;28;20050;-70
2021/12/15 00:10:20;;;;;;;20.95;13.48;;;1.10;99.90;;;;;;5016333;28;20076;-70
2021/12/15 00:12:47;;;;;;;34.13;13.77;;;1.10;99.90;;;;;;5016917;28;20326;-70
2021/12/15 00:15:16;;;;;;;25.08;15.48;;;1.10;99.90;;;;;;5015728;28;20048;-70
2021/12/15 00:17:42;;;;;;;97.05;16.90;;;1.10;99.90;;;;;;5015009;28;20046;-70
2021/12/15 00:20:11;;;;;;;;;;;1.10;99.90;;;;;;5015542;28;20492;-70
2021/12/15 00:22:38;;;;;;;28.02;14.07;;;1.10;99.90;;;;;;5014980;28;19995;-70
2021/12/15 00:25:08;;;;;;;39.38;15.25;;;1.10;99.90;;;;;;5015554;28;20430;-70
2021/12/15 00:27:35;;;;;;;23.15;14.93;;;1.20;99.90;;;;;;5016023;28;20489;-70
2021/12/15 00:30:06;;;;;;;20.63;14.13;;;1.10;99.90;;;;;;5014448;28;20132;-70
2021/12/15 00:32:34;;;;;;;19.20;13.57;;;1.20;99.90;;;;;;5016043;28;20505;-70
2021/12/15 00:35:01;;;;;;;19.02;13.07;;;1.20;99.90;;;;;;5015545;28;20509;-70
2021/12/15 00:37:28;;;;;;;21.90;13.10;;;1.20;99.90;;;;;;5015445;28;20224;-70
2021/12/15 00:39:55;;;;;;;20.50;13.88;;;1.20;99.90;;;;;;5014866;28;20141;-70
2021/12/15 00:42:21;;;;;;;;;;;1.20;99.90;;;;;;5015969;28;20058;-70
2021/12/15 00:44:48;;;;;;;23.98;13.85;;;1.20;99.90;;;;;;5013990;28;19925;-70
2021/12/15 00:47:15;;;;;;;;;;;1.20;99.90;;;;;;5015996;28;20057;-69
2021/12/15 00:49:42;;;;;;;22.60;14.18;;;1.20;99.90;;;;;;5015164;28;20265;-69
2021/12/15 00:52:09;;;;;;;23.35;14.23;;;1.30;99.90;;;;;;5012938;28;20053;-70
2021/12/15 00:54:36;;;;;;;;;;;1.30;99.90;;;;;;5014957;28;20041;-70
2021/12/15 00:57:04;;;;;;;24.55;15.68;;;1.30;99.90;;;;;;5014249;28;19929;-70
2021/12/15 00:59:32;;;;;;;23.30;14.68;;;1.30;99.90;;;;;;5017560;28;20064;-70
2021/12/15 01:02:00;;;;;;;26.10;15.77;;;1.30;99.90;;;;;;5019262;28;20099;-70
2021/12/15 01:04:29;;;;;;;21.95;14.23;;;1.30;99.90;;;;;;5019035;28;20064;-70
2021/12/15 01:07:02;;;;;;;37.58;15.55;;;1.30;99.90;;;;;;5017254;28;20576;-70
2021/12/15 01:09:40;;;;;;;135.85;17.70;;;1.20;99.90;;;;;;5016503;28;20045;-70
2021/12/15 01:20:48;;;;;;;17.00;11.63;;;1.20;99.90;;;;;;4996014;28;20398;-70
2021/12/15 01:23:19;;;;;;;24.75;14.77;;;1.20;99.90;;;;;;5016874;28;20064;-70
2021/12/15 01:26:08;;;;;;;20.95;14.60;;;1.30;99.90;;;;;;5018019;28;20047;-71
2021/12/15 01:28:35;;;;;;;19.60;13.40;;;1.30;99.90;;;;;;5017255;28;20095;-70
2021/12/15 01:31:04;;;;;;;22.20;14.98;;;1.30;99.90;;;;;;5016316;28;20433;-70
2021/12/15 01:33:33;;;;;;;102.80;17.77;;;1.30;99.90;;;;;;5016376;28;20304;-69
2021/12/15 01:36:00;;;;;;;34.00;15.27;;;1.30;99.90;;;;;;5016784;28;20056;-69
2021/12/15 01:38:30;;;;;;;56.40;15.63;;;1.30;99.90;;;;;;5018140;28;20037;-70
2021/12/15 01:40:58;;;;;;;17.52;12.23;;;1.30;99.90;;;;;;5017987;28;20501;-70
2021/12/15 01:43:49;;;;;;;22.20;13.90;;;1.30;99.90;;;;;;5017503;28;20515;-69
2021/12/15 01:49:09;;;;;;;26.38;14.18;;;1.30;99.90;;;;;;5017525;28;20642;-69
2021/12/15 01:51:36;;;;;;;19.23;12.68;;;1.30;99.90;;;;;;5016064;28;20053;-69
2021/12/15 01:54:04;;;;;;;17.98;12.48;;;1.30;99.90;;;;;;5018273;28;20045;-70
2021/12/15 01:56:31;;;;;;;22.58;14.35;;;1.30;99.90;;;;;;5016166;28;20049;-70
2021/12/15 01:58:58;;;;;;;23.63;15.05;;;1.30;99.90;;;;;;5015274;28;20539;-69
2021/12/15 02:01:26;;;;;;;25.00;13.95;;;1.30;99.90;;;;;;5012646;28;20050;-70
2021/12/15 02:03:55;;;;;;;20.15;13.75;;;1.30;99.90;;;;;;4997302;28;20268;-69
2021/12/15 02:06:41;;;;;;;21.13;13.57;;;1.30;99.90;;;;;;4997887;28;20049;-70
2021/12/15 02:09:08;;;;;;;21.40;14.25;;;1.30;99.90;;;;;;4998869;28;20057;-70
2021/12/15 02:11:35;;;;;;;21.95;14.38;;;1.30;99.90;;;;;;5016835;28;20052;-70
2021/12/15 02:14:02;;;;;;;22.00;14.38;;;1.30;99.90;;;;;;5017556;28;20041;-69
2021/12/15 02:16:29;;;;;;;21.80;13.57;;;1.30;99.90;;;;;;5017398;28;20041;-70
2021/12/15 02:18:56;;;;;;;22.85;14.15;;;1.30;99.90;;;;;;5011965;28;20060;-69
2021/12/15 02:21:25;;;;;;;29.58;15.48;;;1.30;99.90;;;;;;4999855;28;20093;-70
2021/12/15 02:23:56;;;;;;;21.05;14.48;;;1.30;99.90;;;;;;5016220;28;20057;-70
2021/12/15 02:26:26;;;;;;;18.17;13.27;;;1.30;99.90;;;;;;5016184;28;20064;-70
2021/12/15 02:28:56;;;;;;;22.17;13.90;;;1.30;99.90;;;;;;5016616;28;20318;-70
2021/12/15 02:34:20;;;;;;;22.48;14.20;;;1.20;99.90;;;;;;5017310;28;20046;-70
2021/12/15 02:39:30;;;;;;;35.72;16.00;;;1.20;99.90;;;;;;5016763;28;20053;-70
2021/12/15 02:41:57;;;;;;;44.38;16.23;;;1.20;99.90;;;;;;5015712;28;20072;-70
2021/12/15 02:44:25;;;;;;;25.20;14.50;;;1.20;99.90;;;;;;5015493;28;20047;-70
2021/12/15 02:46:53;;;;;;;21.05;14.50;;;1.20;99.90;;;;;;5015629;28;20042;-69
2021/12/15 02:49:26;;;;;;;21.48;14.65;;;1.20;99.90;;;;;;5018130;28;20083;-70
2021/12/15 02:51:55;;;;;;;36.50;15.70;;;1.20;99.90;;;;;;5018098;28;20053;-70
2021/12/15 02:54:24;;;;;;;27.27;15.23;;;1.20;99.90;;;;;;5018692;28;20042;-70
2021/12/15 02:56:53;;;;;;;33.95;15.95;;;1.20;99.90;;;;;;5017938;28;20049;-70
2021/12/15 02:59:30;;;;;;;23.70;14.85;;;1.20;99.90;;;;;;5017896;28;20115;-70
2021/12/15 03:02:07;;;;;;;31.85;14.45;;;1.10;99.90;;;;;;5018585;28;20049;-70
2021/12/15 03:07:10;;;;;;;;;;;1.20;99.90;;;;;;5018015;28;20048;-70
2021/12/15 03:17:36;;;;;;;23.77;14.27;;;1.20;99.90;;;;;;5016663;28;20099;-70
2021/12/15 03:20:06;;;;;;;19.85;13.38;;;1.20;99.90;;;;;;5014818;28;20079;-70
2021/12/15 03:22:33;;;;;;;27.02;16.20;;;1.20;99.90;;;;;;5003303;28;20497;-71
2021/12/15 03:25:03;;;;;;;33.55;16.55;;;1.20;99.90;;;;;;5003726;28;20046;-71
2021/12/15 03:33:27;;;;;;;24.05;15.35;;;1.20;99.90;;;;;;4996643;28;20046;-71
2021/12/15 03:33:35;;;;;;;23.70;15.80;;;1.20;99.90;;;;;;4998399;28;20456;-72
2021/12/15 03:36:11;;;;;;;25.88;15.68;;;1.20;99.90;;;;;;4997549;28;20050;-71
2021/12/15 03:38:39;;;;;;;24.77;15.10;;;1.20;99.90;;;;;;4996170;28;20472;-71
2021/12/15 03:41:09;;;;;;;28.10;17.00;;;1.30;99.90;;;;;;4995520;28;20053;-71
2021/12/15 03:43:38;;;;;;;25.65;15.77;;;1.30;99.90;;;;;;4996336;28;20100;-71
2021/12/15 03:46:10;;;;;;;31.52;16.58;;;1.30;99.90;;;;;;4996421;28;20041;-70
2021/12/15 03:48:39;;;;;;;27.38;16.77;;;1.30;99.90;;;;;;4995709;28;20045;-71
2021/12/15 03:51:12;;;;;;;28.40;14.35;;;1.30;99.90;;;;;;4996936;28;20062;-71
2021/12/15 03:53:41;;;;;;;25.33;15.98;;;1.20;99.90;;;;;;4996233;28;20041;-71
2021/12/15 03:56:11;;;;;;;59.72;17.63;;;1.20;99.90;;;;;;4996045;28;20139;-71
2021/12/15 03:58:39;;;;;;;91.40;19.38;;;1.20;99.90;;;;;;4996586;28;20038;-71
2021/12/15 04:01:13;;;;;;;29.35;16.85;;;1.20;99.90;;;;;;5000567;28;20596;-71
2021/12/15 04:03:47;;;;;;;28.48;16.52;;;1.20;99.90;;;;;;5015709;28;20069;-71
2021/12/15 04:06:20;;;;;;;21.35;13.55;;;1.20;99.90;;;;;;5016293;28;20497;-71
2021/12/15 04:08:47;;;;;;;27.27;15.07;;;1.20;99.90;;;;;;5017384;28;20112;-70
2021/12/15 04:11:18;;;;;;;30.05;18.15;;;1.20;99.90;;;;;;5016793;28;20128;-70
2021/12/15 04:13:47;;;;;;;23.80;15.68;;;1.20;99.90;;;;;;5017891;28;20049;-70
2021/12/15 04:16:41;;;;;;;25.80;15.43;;;1.20;99.90;;;;;;5016682;28;20480;-70
2021/12/15 04:19:07;;;;;;;25.27;16.05;;;1.20;99.90;;;;;;4996637;28;20053;-70
2021/12/15 04:21:37;;;;;;;23.10;15.38;;;1.20;99.90;;;;;;5001689;28;20513;-70
2021/12/15 04:24:05;;;;;;;20.50;13.88;;;1.20;99.90;;;;;;5015950;28;20046;-70
2021/12/15 04:26:32;;;;;;;23.27;14.45;;;1.20;99.90;;;;;;5014115;28;20045;-70
2021/12/15 04:28:59;;;;;;;18.40;12.68;;;1.20;99.90;;;;;;5015127;28;20476;-70
2021/12/15 04:31:27;;;;;;;;;;;1.20;99.90;;;;;;5016978;28;20516;-70
2021/12/15 04:33:59;;;;;;;;;;;1.20;99.90;;;;;;5017688;28;19931;-71
2021/12/15 04:36:31;;;;;;;19.80;12.55;;;1.20;99.90;;;;;;5019911;28;20263;-70
2021/12/15 04:38:59;;;;;;;20.75;14.25;;;1.20;99.90;;;;;;5019186;28;20053;-70
2021/12/15 04:41:27;;;;;;;22.75;14.30;;;1.20;99.90;;;;;;5019162;28;20544;-70
2021/12/15 04:44:10;;;;;;;31.98;17.00;;;1.20;99.90;;;;;;5019669;28;20048;-70
2021/12/15 04:47:08;;;;;;;23.88;15.18;;;1.20;99.90;;;;;;5019637;28;20041;-70
2021/12/15 04:49:48;;;;;;;38.63;17.13;;;1.20;99.90;;;;;;5017985;28;20092;-70
2021/12/15 04:52:18;;;;;;;53.92;16.45;;;1.20;99.90;;;;;;5019457;28;20447;-70
2021/12/15 04:54:45;;;;;;;28.73;14.85;;;1.10;99.90;;;;;;5019086;28;20103;-70
2021/12/15 04:57:13;;;;;;;42.22;16.38;;;1.10;99.90;;;;;;5018859;28;20057;-70
2021/12/15 04:59:40;;;;;;;38.88;17.10;;;1.10;99.90;;;;;;5018497;28;20334;-70
2021/12/15 05:02:08;;;;;;;42.00;17.58;;;1.10;99.90;;;;;;5013727;28;20049;-70
2021/12/15 05:04:36;;;;;;;27.55;16.60;;;1.10;99.90;;;;;;4999133;28;20040;-70
2021/12/15 05:07:04;;;;;;;32.22;17.08;;;1.10;99.90;;;;;;4999342;28;20054;-70
2021/12/15 05:09:30;;;;;;;21.80;13.57;;;1.10;99.90;;;;;;5005426;28;20048;-70
2021/12/15 05:11:58;;;;;;;24.50;14.52;;;1.10;99.90;;;;;;5019111;28;20053;-70
2021/12/15 05:14:26;;;;;;;40.25;17.20;;;1.10;99.90;;;;;;5017549;28;20045;-70
2021/12/15 05:16:54;;;;;;;33.67;16.20;;;1.10;99.90;;;;;;5018648;28;20079;-70
2021/12/15 05:19:21;;;;;;;22.42;14.95;;;1.10;99.90;;;;;;5017236;28;20813;-70
2021/12/15 05:21:50;;;;;;;24.75;15.07;;;1.20;99.90;;;;;;5018480;28;20052;-70
2021/12/15 05:27:09;;;;;;;28.15;15.55;;;1.20;99.90;;;;;;5018961;28;20099;-71
2021/12/15 05:29:39;;;;;;;27.70;14.82;;;1.20;99.90;;;;;;5017811;28;20053;-69
2021/12/15 05:32:08;;;;;;;22.55;14.55;;;1.20;99.90;;;;;;5018159;28;20051;-70
2021/12/15 05:34:37;;;;;;;25.13;15.35;;;1.20;99.90;;;;;;5018570;28;20119;-69
2021/12/15 05:37:04;;;;;;;20.52;12.85;;;1.20;99.90;;;;;;5016806;28;20107;-69
2021/12/15 05:39:32;;;;;;;20.90;13.85;;;1.20;99.90;;;;;;5018119;28;20668;-69
2021/12/15 05:41:59;;;;;;;21.73;13.45;;;1.20;99.90;;;;;;5018427;28;20335;-69
2021/12/15 05:44:27;;;;;;;18.20;11.57;;;1.20;99.90;;;;;;5017771;28;20065;-69
2021/12/15 05:46:56;;;;;;;18.63;12.57;;;1.20;99.90;;;;;;5017475;28;20073;-69
2021/12/15 05:49:24;;;;;;;15.98;10.90;;;1.20;99.90;;;;;;5018040;28;20508;-69
2021/12/15 05:51:51;;;;;;;20.35;12.73;;;1.20;99.90;;;;;;5016617;28;20041;-69
2021/12/15 05:54:18;;;;;;;18.63;10.85;;;1.20;99.90;;;;;;5017847;28;20433;-70
2021/12/15 05:56:45;;;;;;;22.45;11.75;;;1.10;99.90;;;;;;5019857;28;20041;-69
2021/12/15 05:59:12;;;;;;;26.00;14.50;;;1.10;99.90;;;;;;5018582;28;20046;-69
2021/12/15 06:01:39;;;;;;;;;;;1.10;99.90;;;;;;5018938;28;20099;-70
2021/12/15 06:04:07;;;;;;;24.07;14.37;;;1.10;99.90;;;;;;5017632;28;19967;-69
2021/12/15 06:06:34;;;;;;;21.65;13.43;;;1.10;99.90;;;;;;5018372;28;21088;-70
2021/12/15 06:09:04;;;;;;;21.55;13.63;;;1.10;99.90;;;;;;5015473;28;20048;-69
2021/12/15 06:11:31;;;;;;;23.58;14.63;;;1.10;99.90;;;;;;5018152;28;20045;-70
2021/12/15 06:13:58;;;;;;;26.05;15.27;;;1.10;99.90;;;;;;5018132;28;20042;-70
2021/12/15 06:16:25;;;;;;;;;;;1.10;99.90;;;;;;5017161;28;20049;-70
2021/12/15 06:18:53;;;;;;;24.85;15.38;;;1.10;99.90;;;;;;5018658;28;20598;-68
2021/12/15 06:21:21;;;;;;;23.88;15.05;;;1.00;99.90;;;;;;5018586;28;20041;-70
2021/12/15 06:23:48;;;;;;;24.33;14.85;;;1.00;99.90;;;;;;4997608;28;20049;-70
2021/12/15 06:26:17;;;;;;;26.30;15.63;;;1.00;99.90;;;;;;4998039;28;20461;-70
2021/12/15 06:28:45;;;;;;;32.20;16.20;;;1.10;99.90;;;;;;4998173;28;20050;-70
2021/12/15 06:31:16;;;;;;;26.90;15.25;;;1.10;99.90;;;;;;4997106;28;20037;-70
2021/12/15 06:33:44;;;;;;;24.52;14.02;;;1.10;99.90;;;;;;4998034;28;20080;-70
2021/12/15 06:36:14;;;;;;;22.77;14.02;;;1.10;99.90;;;;;;4997280;28;20046;-70
2021/12/15 06:38:45;;;;;;;55.65;18.30;;;1.10;99.90;;;;;;4996932;28;20153;-70
2021/12/15 06:41:14;;;;;;;21.98;13.57;;;1.10;99.90;;;;;;4996919;28;20529;-70
2021/12/15 06:43:45;;;;;;;22.25;15.00;;;1.10;99.90;;;;;;4996652;28;20092;-71
2021/12/15 06:59:43;;;;;;;25.52;16.63;;;1.30;99.90;;;;;;4996255;28;20052;-59
2021/12/15 07:02:10;;;;;;;64.35;17.20;;;1.30;99.90;;;;;;5006798;28;20822;-59
2021/12/15 07:04:37;;;;;;;44.13;18.80;;;1.30;99.90;;;;;;5016424;28;20041;-61
2021/12/15 07:07:04;;;;;;;;;;;1.30;99.90;;;;;;5015475;28;20049;-61
2021/12/15 07:09:33;;;;;;;38.28;18.00;;;1.30;99.90;;;;;;5015519;28;19968;-60
2021/12/15 07:12:02;;;;;;;26.60;17.73;;;1.30;99.90;;;;;;5016416;28;20103;-61
2021/12/15 07:14:29;;;;;;;29.13;18.50;;;1.40;99.90;;;;;;5016750;28;20111;-61
2021/12/15 07:16:57;;;;;;;;;;;1.40;99.90;;;;;;5015910;28;20143;-60
2021/12/15 07:24:57;;;;;;;77.55;19.17;;;1.40;99.90;;;;;;5002759;28;20148;-61
2021/12/15 07:27:24;;;;;;;26.77;15.75;;;1.40;99.90;;;;;;5016628;28;20560;-60
2021/12/15 07:29:51;;;;;;;42.90;15.73;;;1.40;99.90;;;;;;5015233;28;20072;-61
2021/12/15 07:32:18;;;;;;;;;;;1.40;99.90;;;;;;5014778;28;20749;-61
2021/12/15 07:34:45;;;;;;;20.27;12.18;;;1.40;99.90;;;;;;5015343;28;19925;-61
2021/12/15 07:37:12;;;;;;;22.40;12.82;;;1.40;99.90;;;;;;5016356;28;20045;-58
2021/12/15 07:39:44;;;;;;;32.42;14.48;;;1.40;99.90;;;;;;5009685;28;20049;-58
2021/12/15 07:42:12;;;;;;;25.67;14.38;;;1.40;99.90;;;;;;5011968;28;20053;-58
2021/12/15 07:44:39;;;;;;;23.83;12.90;;;1.40;99.90;;;;;;5013559;28;20050;-58
2021/12/15 07:47:06;;;;;;;;;;;1.30;99.90;;;;;;5015359;28;20037;-58
2021/12/15 07:49:34;;;;;;;21.63;12.45;;;1.30;99.90;;;;;;5015831;28;20002;-58
2021/12/15 07:52:03;;;;;;;23.92;13.98;;;1.30;99.90;;;;;;5015799;28;20656;-57
2021/12/15 07:54:35;;;;;;;25.13;13.48;;;1.20;99.90;;;;;;5015282;28;20485;-57
2021/12/15 07:57:05;;;;;;;22.92;12.50;;;1.20;99.90;;;;;;5013225;28;20107;-57
2021/12/15 07:59:32;;;;;;;24.17;12.00;;;1.20;99.90;;;;;;5013722;28;20628;-60
2021/12/15 08:01:59;;;;;;;;;;;1.20;99.90;;;;;;5013449;28;20065;-60
2021/12/15 08:04:26;;;;;;;26.05;10.77;;;1.20;99.90;;;;;;5015560;28;20504;-60
2021/12/15 08:06:53;;;;;;;20.35;11.52;;;1.20;99.90;;;;;;5014107;28;20497;-60
2021/12/15 08:09:22;;;;;;;22.83;12.00;;;1.20;99.90;;;;;;5017293;28;20111;-60
2021/12/15 08:11:50;;;;;;;20.48;11.30;;;1.20;99.90;;;;;;5019667;28;20073;-60
2021/12/15 08:14:17;;;;;;;19.50;11.80;;;1.10;99.90;;;;;;5018327;28;20073;-60
2021/12/15 08:16:43;;;;;;;;;;;1.10;99.90;;;;;;5018863;28;20339;-60
2021/12/15 08:19:14;;;;;;;20.15;12.38;;;1.10;99.90;;;;;;5006983;28;20334;-60
2021/12/15 08:21:42;;;;;;;20.63;11.43;;;1.10;99.90;;;;;;5013945;28;20392;-60
2021/12/15 08:24:09;;;;;;;23.60;13.88;;;1.10;99.90;;;;;;5017325;28;20509;-60
2021/12/15 08:26:36;;;;;;;20.67;13.02;;;1.10;99.90;;;;;;5018404;28;20275;-59
2021/12/15 08:29:03;;;;;;;24.33;12.95;;;1.20;99.90;;;;;;5019026;28;20064;-60
2021/12/15 08:31:30;;;;;;;21.73;13.35;;;1.10;99.90;;;;;;5018508;28;20041;-60
2021/12/15 08:33:57;;;;;;;;;;;1.10;99.90;;;;;;5017793;28;20045;-60
2021/12/15 08:36:24;;;;;;;23.08;12.05;;;1.10;99.90;;;;;;5017432;28;20561;-60
2021/12/15 08:38:52;;;;;;;;;;;1.10;99.90;;;;;;5018491;28;20269;-59
2021/12/15 08:41:24;;;;;;;20.90;12.10;;;1.20;99.90;;;;;;5017713;28;19931;-59
2021/12/15 08:43:52;;;;;;;20.10;12.15;;;1.10;99.90;;;;;;5017802;28;20456;-59
2021/12/15 08:46:30;;;;;;;19.65;11.60;;;1.10;99.90;;;;;;5017127;28;20041;-59
2021/12/15 08:48:59;;;;;;;20.27;11.35;;;1.10;99.90;;;;;;5017867;28;20560;-60
2021/12/15 08:51:27;;;;;;;18.70;11.23;;;1.10;99.90;;;;;;5018574;28;20041;-60
2021/12/15 08:53:58;;;;;;;18.13;10.48;;;1.10;99.90;;;;;;5017183;28;20057;-60
2021/12/15 08:56:25;;;;;;;21.25;12.23;;;1.10;99.90;;;;;;5018804;28;20042;-59
2021/12/15 08:58:53;;;;;;;22.13;11.88;;;1.10;99.90;;;;;;4998130;28;20050;-59
2021/12/15 09:01:20;;;;;;;74.38;13.85;;;1.10;99.90;;;;;;5010932;28;20472;-59
2021/12/15 09:03:48;;;;;;;20.48;13.13;;;1.20;99.90;;;;;;5016753;28;20107;-61
2021/12/15 09:06:15;;;;;;;22.17;12.65;;;1.20;99.90;;;;;;5017941;28;20109;-56
2021/12/15 09:08:43;;;;;;;25.40;14.63;;;1.20;99.90;;;;;;5018297;28;20045;-59
2021/12/15 09:11:13;;;;;;;22.38;12.65;;;1.30;99.90;;;;;;5016657;28;20041;-59
2021/12/15 09:13:41;;;;;;;20.90;13.40;;;1.30;99.90;;;;;;5018985;28;20045;-58
2021/12/15 09:16:11;;;;;;;22.80;13.98;;;1.40;99.90;;;;;;5015902;28;20072;-58
2021/12/15 09:18:41;;;;;;;22.85;13.52;;;1.40;99.90;;;;;;5018381;28;20072;-58
2021/12/15 09:21:12;;;;;;;27.30;12.82;;;1.40;99.90;;;;;;5015887;28;20057;-59
2021/12/15 09:23:39;;;;;;;25.95;13.48;;;1.50;99.90;;;;;;5017240;28;20048;-58
2021/12/15 09:26:07;;;;;;;25.70;14.07;;;1.50;99.90;;;;;;5018343;28;20076;-57
2021/12/15 09:28:34;;;;;;;42.95;16.65;;;1.50;99.90;;;;;;5017446;28;20594;-59
2021/12/15 09:31:04;;;;;;;25.45;16.08;;;1.60;99.90;;;;;;5016644;28;20049;-58
2021/12/15 09:33:33;;;;;;;36.83;16.58;;;1.60;99.90;;;;;;5016391;28;20467;-58
2021/12/15 09:36:02;;;;;;;47.78;16.38;;;1.70;99.90;;;;;;5016848;28;20111;-55
2021/12/15 09:38:30;;;;;;;25.55;14.70;;;1.70;99.90;;;;;;5015937;28;20084;-56
2021/12/15 09:40:59;;;;;;;27.20;14.93;;;1.70;99.90;;;;;;5010897;28;20120;-55
2021/12/15 09:43:30;;;;;;;25.13;14.75;;;1.80;99.90;;;;;;4997119;28;20050;-55
2021/12/15 09:46:09;;;;;;;30.77;17.15;;;1.80;99.90;;;;;;4998287;28;20108;-57
2021/12/15 10:02:53;;;;;;;37.03;17.08;;;1.90;99.90;;;;;;5010250;28;20529;-58
2021/12/15 10:18:45;;;;;;;109.43;18.23;;;1.90;99.90;;;;;;5015636;28;20123;-58
2021/12/15 10:21:39;;;;;;;223.45;22.90;;;1.90;99.90;;;;;;5015130;28;20365;-58
2021/12/15 10:24:10;;;;;;;70.53;19.25;;;1.90;99.90;;;;;;4997263;28;20058;-58
2021/12/15 10:26:54;;;;;;;30.05;15.70;;;1.80;99.90;;;;;;4997705;28;20171;-56
2021/12/15 10:29:21;;;;;;;35.88;16.40;;;1.90;99.90;;;;;;5006132;28;20067;-59
2021/12/15 10:31:58;;;;;;;58.97;19.98;;;1.90;99.90;;;;;;5015591;28;20042;-58
2021/12/15 10:34:25;;;;;;;29.55;16.10;;;1.90;99.90;;;;;;5016401;28;20314;-58
2021/12/15 10:37:04;;;;;;;256.00;25.30;;;1.90;99.90;;;;;;5007545;28;20132;-57
2021/12/15 10:39:30;;;;;;;31.10;15.23;;;1.90;99.90;;;;;;5014808;28;20731;-58
2021/12/15 10:41:57;;;;;;;;;;;2.00;99.90;;;;;;5016223;28;20126;-57
2021/12/15 10:44:26;;;;;;;22.83;13.88;;;2.00;99.90;;;;;;5016003;28;19929;-57
2021/12/15 10:46:57;;;;;;;41.00;16.95;;;2.10;99.90;;;;;;5016070;28;20107;-58
2021/12/15 10:49:29;;;;;;;28.95;16.13;;;2.10;99.90;;;;;;5014206;28;20498;-57
2021/12/15 10:52:05;;;;;;;25.33;15.57;;;2.10;99.90;;;;;;5016373;28;20056;-63
2021/12/15 10:54:37;;;;;;;26.35;15.07;;;2.10;99.90;;;;;;5003397;28;20050;-61
2021/12/15 10:57:08;;;;;;;28.35;15.77;;;2.20;99.90;;;;;;4997987;28;20050;-59
2021/12/15 10:59:42;;;;;;;31.23;15.85;;;2.20;99.90;;;;;;4997196;28;20053;-59
2021/12/15 11:02:32;;;;;;;26.63;16.67;;;2.20;99.90;;;;;;4997274;28;20553;-59
2021/12/15 11:05:15;;;;;;;33.80;17.48;;;2.20;99.90;;;;;;4997290;28;20050;-59
2021/12/15 11:07:45;;;;;;;26.27;15.55;;;2.20;99.90;;;;;;4996715;28;20149;-59
2021/12/15 11:10:31;;;;;;;27.85;15.80;;;2.20;99.90;;;;;;5007062;28;20050;-59
2021/12/15 11:13:04;;;;;;;25.00;14.90;;;2.30;99.90;;;;;;5015391;28;20052;-59
2021/12/15 11:15:51;;;;;;;21.55;13.05;;;2.30;99.90;;;;;;5014308;28;20150;-60
2021/12/15 11:18:18;;;;;;;;;;;2.30;99.90;;;;;;5015874;28;20116;-59
2021/12/15 11:20:52;;;;;;;21.92;14.20;;;2.30;99.90;;;;;;5013270;28;19999;-59
2021/12/15 11:23:21;;;;;;;26.45;14.50;;;2.30;99.90;;;;;;5011749;28;20046;-59
2021/12/15 11:26:11;;;;;;;25.60;14.82;;;2.40;99.90;;;;;;5015666;28;20045;-57
2021/12/15 11:28:41;;;;;;;31.13;14.88;;;2.40;99.90;;;;;;5015619;28;20107;-58
2021/12/15 11:31:11;;;;;;;24.80;15.45;;;2.40;99.90;;;;;;5014455;28;20045;-58
2021/12/15 11:33:45;;;;;;;24.33;14.25;;;2.40;99.90;;;;;;5015654;28;20377;-57
2021/12/15 11:36:18;;;;;;;27.90;15.52;;;2.40;99.90;;;;;;5014941;28;20077;-60
2021/12/15 11:38:48;;;;;;;25.52;14.75;;;2.40;99.90;;;;;;5016081;28;20470;-56
2021/12/15 11:41:18;;;;;;;64.10;17.80;;;2.40;99.90;;;;;;5029629;28;20509;-61
2021/12/15 11:43:57;;;;;;;22.83;14.80;;;2.50;99.90;;;;;;5013010;28;20179;-58
2021/12/15 11:46:36;;;;;;;22.15;13.57;;;2.40;99.90;;;;;;5015190;28;20053;-56
2021/12/15 11:49:07;;;;;;;20.42;13.32;;;2.40;99.90;;;;;;5015262;28;20046;-58
2021/12/15 11:51:39;;;;;;;27.02;14.75;;;2.50;99.90;;;;;;5015584;28;20036;-57
2021/12/15 11:54:29;;;;;;;24.42;15.10;;;2.50;99.90;;;;;;5013255;28;20049;-58
2021/12/15 11:56:57;;;;;;;23.17;13.88;;;2.40;99.90;;;;;;5015377;28;20576;-58
2021/12/15 11:59:29;;;;;;;24.75;14.55;;;2.50;99.90;;;;;;5014559;28;20139;-59
2021/12/15 12:02:03;;;;;;;23.10;13.40;;;2.50;99.90;;;;;;5015662;28;20492;-59
2021/12/15 12:04:45;;;;;;;25.80;16.05;;;2.50;99.90;;;;;;5014626;28;20053;-59
2021/12/15 12:07:20;;;;;;;23.77;13.45;;;2.50;99.90;;;;;;5015709;28;20050;-55
2021/12/15 12:09:54;;;;;;;22.75;13.40;;;2.50;99.90;;;;;;5014311;28;20041;-56
2021/12/15 12:12:26;;;;;;;26.83;14.77;;;2.50;99.90;;;;;;5015221;28;20563;-56
2021/12/15 12:14:53;;;;;;;21.05;13.63;;;2.60;99.90;;;;;;5014637;28;20068;-59
2021/12/15 12:17:30;;;;;;;34.40;14.05;;;2.60;99.90;;;;;;5014938;28;20730;-60
2021/12/15 12:20:06;;;;;;;24.60;13.55;;;2.60;99.90;;;;;;4995502;28;20452;-59
2021/12/15 12:22:35;;;;;;;15.35;10.15;;;2.60;99.90;;;;;;5009197;28;20111;-59
2021/12/15 12:25:14;;;;;;;16.77;11.32;;;2.60;99.90;;;;;;5015036;28;20048;-59
2021/12/15 12:27:44;;;;;;;20.98;13.25;;;2.60;99.90;;;;;;5014730;28;20513;-60
2021/12/15 12:30:20;;;;;;;21.67;14.05;;;2.60;99.90;;;;;;5014311;28;20052;-59
2021/12/15 12:32:47;;;;;;;20.20;12.25;;;2.60;99.90;;;;;;5012861;28;20603;-59
2021/12/15 12:35:20;;;;;;;18.15;11.90;;;2.60;99.90;;;;;;5014449;28;20163;-59
2021/12/15 12:37:53;;;;;;;20.08;12.75;;;2.60;99.90;;;;;;5009157;28;20061;-59
2021/12/15 12:40:30;;;;;;;21.58;13.50;;;2.60;99.90;;;;;;4994600;28;20054;-59
2021/12/15 12:42:57;;;;;;;19.95;12.20;;;2.70;99.90;;;;;;5006111;28;20046;-60
2021/12/15 12:45:41;;;;;;;18.05;10.75;;;2.60;99.90;;;;;;5015125;28;20060;-60
2021/12/15 12:59:32;;;;;;;18.13;12.05;;;2.60;99.90;;;;;;4995977;28;20050;-59
2021/12/15 13:02:40;;;;;;;21.73;11.73;;;2.70;99.90;;;;;;5007607;28;20049;-58
2021/12/15 13:05:28;;;;;;;14.95;10.48;;;2.60;99.90;;;;;;5017568;28;20481;-58
2021/12/15 13:07:58;;;;;;;14.80;10.02;;;2.60;99.90;;;;;;5016458;28;20197;-57
2021/12/15 13:10:46;;;;;;;17.90;12.48;;;2.60;99.90;;;;;;5009858;28;20409;-57
2021/12/15 13:13:20;;;;;;;22.92;13.55;;;2.60;99.90;;;;;;5019005;28;20072;-59
2021/12/15 13:15:57;;;;;;;24.40;13.35;;;2.60;99.90;;;;;;5018049;28;20574;-59
2021/12/15 13:18:26;;;;;;;28.58;12.63;;;2.60;99.90;;;;;;5009478;28;20053;-57
2021/12/15 13:21:05;;;;;;;23.73;14.02;;;2.50;99.90;;;;;;4995690;28;20497;-57
2021/12/15 13:23:55;;;;;;;18.02;11.48;;;2.40;99.90;;;;;;5016155;28;20057;-55
2021/12/15 13:29:29;;;;;;;19.05;12.57;;;2.40;99.90;;;;;;5017768;28;20099;-57
2021/12/15 13:31:59;;;;;;;;;;;2.40;99.90;;;;;;5016068;28;20081;-56
2021/12/15 13:34:47;;;;;;;16.75;10.75;;;2.40;99.90;;;;;;5015393;28;19995;-55
2021/12/15 13:37:57;;;;;;;17.92;11.45;;;2.40;99.90;;;;;;5018200;28;20060;-56
2021/12/15 13:40:53;;;;;;;17.40;11.38;;;2.40;99.90;;;;;;5016900;28;20487;-66
2021/12/15 13:43:53;;;;;;;27.13;12.43;;;2.40;99.90;;;;;;5016239;28;20047;-59
2021/12/15 13:46:34;;;;;;;20.05;12.98;;;2.40;99.90;;;;;;5017330;28;20284;-59
2021/12/15 13:49:06;;;;;;;16.83;11.02;;;2.40;99.90;;;;;;5016368;28;20045;-59
2021/12/15 13:52:06;;;;;;;16.65;11.13;;;2.30;99.90;;;;;;5017412;28;20045;-59
2021/12/15 13:54:33;;;;;;;17.45;11.43;;;2.30;99.90;;;;;;5015334;28;20056;-59
2021/12/15 13:56:59;;;;;;;;;;;2.30;99.90;;;;;;5017226;28;20218;-59
2021/12/15 13:59:50;;;;;;;17.85;10.73;;;2.30;99.90;;;;;;5017106;28;19948;-59
2021/12/15 14:02:25;;;;;;;19.10;11.00;;;2.30;99.90;;;;;;5014760;28;20055;-59
2021/12/15 14:05:05;;;;;;;19.35;11.73;;;2.30;99.90;;;;;;5016874;28;20132;-59
2021/12/15 14:07:34;;;;;;;22.05;13.25;;;2.20;99.90;;;;;;5016585;28;20598;-59
2021/12/15 14:10:10;;;;;;;17.95;11.63;;;2.20;99.90;;;;;;5015755;28;20103;-59
2021/12/15 14:12:45;;;;;;;18.83;11.48;;;2.20;99.90;;;;;;5017117;28;20103;-59
2021/12/15 14:15:13;;;;;;;19.88;12.50;;;2.20;99.90;;;;;;5017265;28;20045;-59
2021/12/15 14:17:40;;;;;;;21.13;12.77;;;2.20;99.90;;;;;;5015939;28;20087;-59
2021/12/15 14:20:11;;;;;;;;;;;2.20;99.90;;;;;;5016434;28;20176;-59
2021/12/15 14:22:38;;;;;;;17.05;11.55;;;2.20;99.90;;;;;;5016392;28;19925;-59
2021/12/15 14:25:06;;;;;;;16.42;11.27;;;2.10;99.90;;;;;;5016347;28;20303;-59
2021/12/15 14:27:32;;;;;;;19.33;11.65;;;2.20;99.90;;;;;;5017081;28;21065;-59
2021/12/15 14:29:59;;;;;;;;;;;2.10;99.90;;;;;;5016446;28;20658;-59
2021/12/15 14:32:29;;;;;;;25.77;12.18;;;2.10;99.90;;;;;;5017077;28;19979;-59
2021/12/15 14:34:56;;;;;;;;;;;2.10;99.90;;;;;;5017008;28;20419;-59
2021/12/15 14:37:23;;;;;;;21.15;11.88;;;2.10;99.90;;;;;;5016908;28;19975;-59
2021/12/15 14:39:51;;;;;;;;;;;2.10;99.90;;;;;;5015692;28;20090;-59